createdAt,value
2022-11-18T00:01:13.619Z,3.63
2022-11-18T00:03:43.960Z,3.20
2022-11-18T00:06:12.920Z,3.00
2022-11-18T00:08:41.158Z,3.30
2022-11-18T00:11:09.853Z,3.43
2022-11-18T00:13:56.425Z,3.30
2022-11-18T00:16:24.613Z,3.10
2022-11-18T00:18:54.387Z,3.50
2022-11-18T00:21:22.597Z,3.63
2022-11-18T00:23:50.837Z,3.50
2022-11-18T00:26:19.140Z,3.53
2022-11-18T00:28:47.678Z,2.90
2022-11-18T00:31:15.958Z,3.33
2022-11-18T00:33:44.238Z,3.17
2022-11-18T00:36:13.866Z,3.20
2022-11-18T00:38:42.118Z,3.60
2022-11-18T00:41:11.092Z,3.10
2022-11-18T00:43:38.690Z,3.10
2022-11-18T00:46:07.704Z,3.43
2022-11-18T00:48:35.933Z,3.40
2022-11-18T00:51:08.665Z,3.40
2022-11-18T00:53:38.340Z,3.43
2022-11-18T00:56:07.125Z,4.00
2022-11-18T00:58:35.366Z,3.20
2022-11-18T01:01:03.748Z,2.90
2022-11-18T01:03:31.997Z,3.17
2022-11-18T01:06:00.234Z,3.00
2022-11-18T01:08:28.404Z,2.80
2022-11-18T01:11:18.699Z,2.73
2022-11-18T01:13:45.896Z,2.93
2022-11-18T01:16:14.193Z,2.60
2022-11-18T01:18:42.493Z,2.70
2022-11-18T01:21:10.729Z,2.47
2022-11-18T01:23:39.222Z,2.70
2022-11-18T01:26:09.877Z,2.60
2022-11-18T01:28:38.130Z,2.77
2022-11-18T01:31:06.622Z,2.90
2022-11-18T01:33:34.861Z,2.40
2022-11-18T01:36:03.137Z,2.53
2022-11-18T01:38:31.739Z,2.83
2022-11-18T01:40:59.974Z,2.70
2022-11-18T01:43:48.945Z,2.70
2022-11-18T01:46:17.211Z,3.30
2022-11-18T01:48:45.451Z,3.20
2022-11-18T01:51:16.363Z,3.10
2022-11-18T01:53:46.598Z,3.37
2022-11-18T01:56:15.968Z,3.80
2022-11-18T01:58:46.525Z,3.90
2022-11-18T02:01:14.772Z,3.40
2022-11-18T02:03:44.187Z,3.87
2022-11-18T02:06:12.680Z,3.80
2022-11-18T02:08:40.758Z,4.00
2022-11-18T02:11:31.121Z,4.30
2022-11-18T02:14:00.912Z,3.67
2022-11-18T02:16:33.935Z,3.60
2022-11-18T02:19:02.949Z,4.70
2022-11-18T02:21:36.125Z,4.50
2022-11-18T02:24:35.378Z,4.87
2022-11-18T02:27:51.148Z,4.27
2022-11-18T02:30:20.746Z,4.30
2022-11-18T02:32:51.470Z,5.23
2022-11-18T02:35:21.197Z,4.93
2022-11-18T02:37:51.097Z,5.40
2022-11-18T02:40:21.504Z,5.33
2022-11-18T02:42:52.111Z,4.83
2022-11-18T02:45:21.601Z,5.03
2022-11-18T02:47:49.982Z,5.33
2022-11-18T02:50:19.966Z,5.03
2022-11-18T02:52:47.994Z,4.50
2022-11-18T02:55:16.302Z,4.67
2022-11-18T02:57:44.795Z,4.30
2022-11-18T03:00:14.271Z,4.50
2022-11-18T03:02:44.476Z,4.93
2022-11-18T03:05:17.557Z,4.30
2022-11-18T03:07:45.770Z,4.73
2022-11-18T03:10:13.879Z,4.80
2022-11-18T03:12:44.488Z,4.73
2022-11-18T03:15:16.595Z,4.10
2022-11-18T03:17:51.797Z,5.20
2022-11-18T03:20:22.220Z,5.23
2022-11-18T03:22:52.367Z,4.77
2022-11-18T03:25:21.586Z,5.30
2022-11-18T03:27:52.344Z,5.10
2022-11-18T03:30:21.571Z,4.93
2022-11-18T03:32:52.782Z,4.80
2022-11-18T03:35:22.888Z,5.33
2022-11-18T03:37:51.233Z,5.17
2022-11-18T03:40:20.061Z,5.10
2022-11-18T03:42:50.825Z,4.27
2022-11-18T03:45:20.805Z,4.97
2022-11-18T03:47:52.550Z,4.53
2022-11-18T03:50:22.597Z,4.73
2022-11-18T03:52:50.692Z,4.70
2022-11-18T03:55:20.626Z,4.90
2022-11-18T03:57:51.792Z,4.20
2022-11-18T04:00:20.448Z,4.80
2022-11-18T04:02:52.423Z,4.20
2022-11-18T04:05:20.593Z,4.43
2022-11-18T04:07:54.593Z,5.03
2022-11-18T04:10:23.975Z,4.60
2022-11-18T04:12:55.440Z,4.57
2022-11-18T04:15:23.944Z,4.43
2022-11-18T04:17:53.382Z,4.20
2022-11-18T04:20:22.301Z,4.70
2022-11-18T04:22:50.697Z,4.77
2022-11-18T04:25:18.780Z,4.40
2022-11-18T04:27:46.829Z,4.17
2022-11-18T04:30:15.768Z,4.03
2022-11-18T04:32:43.813Z,4.60
2022-11-18T04:35:13.474Z,3.63
2022-11-18T04:37:41.477Z,3.97
2022-11-18T04:40:10.828Z,3.90
2022-11-18T04:42:38.877Z,4.00
2022-11-18T04:45:08.161Z,3.93
2022-11-18T04:47:36.279Z,4.03
2022-11-18T04:50:04.697Z,4.30
2022-11-18T04:52:34.125Z,4.00
2022-11-18T04:55:02.310Z,3.93
2022-11-18T04:57:30.583Z,3.93
2022-11-18T04:59:58.896Z,3.80
2022-11-18T05:02:27.463Z,4.20
2022-11-18T05:04:55.742Z,4.20
2022-11-18T05:07:24.052Z,3.50
2022-11-18T05:09:57.615Z,5.13
2022-11-18T05:12:43.095Z,5.20
2022-11-18T05:15:12.529Z,5.57
2022-11-18T05:17:41.122Z,4.80
2022-11-18T05:20:10.115Z,5.03
2022-11-18T05:22:38.297Z,5.20
2022-11-18T05:25:08.883Z,5.67
2022-11-18T05:27:37.180Z,5.20
2022-11-18T05:30:06.448Z,4.80
2022-11-18T05:32:34.998Z,5.03
2022-11-18T05:35:03.335Z,5.60
2022-11-18T05:37:37.164Z,7.03
2022-11-18T05:40:23.070Z,7.73
2022-11-18T05:43:08.650Z,8.70
2022-11-18T05:45:37.154Z,5.83
2022-11-18T05:48:07.900Z,6.03
2022-11-18T05:50:52.506Z,5.37
2022-11-18T05:53:22.166Z,6.27
2022-11-18T05:56:06.266Z,9.40
2022-11-18T05:58:38.165Z,7.30
2022-11-18T06:01:07.406Z,6.50
2022-11-18T06:03:38.706Z,6.13
2022-11-18T06:06:10.101Z,5.63
2022-11-18T06:08:43.059Z,5.03
2022-11-18T06:11:16.397Z,5.17
2022-11-18T06:13:50.466Z,5.20
2022-11-18T06:16:19.067Z,5.40
2022-11-18T06:18:47.278Z,4.93
2022-11-18T06:21:16.852Z,4.87
2022-11-18T06:23:50.477Z,5.10
2022-11-18T06:26:20.962Z,4.80
2022-11-18T06:28:53.244Z,5.50
2022-11-18T06:31:22.908Z,5.83
2022-11-18T06:33:52.869Z,5.80
2022-11-18T06:36:21.179Z,5.00
2022-11-18T06:38:49.381Z,5.90
2022-11-18T06:41:17.946Z,5.27
2022-11-18T06:43:48.113Z,5.97
2022-11-18T06:46:36.419Z,5.20
2022-11-18T06:49:06.584Z,5.30
2022-11-18T06:51:36.485Z,6.03
2022-11-18T06:54:10.424Z,6.53
2022-11-18T06:56:54.288Z,6.20
2022-11-18T06:59:24.646Z,7.00
2022-11-18T07:01:58.054Z,7.17
2022-11-18T07:04:27.487Z,8.00
2022-11-18T07:06:57.372Z,8.13
2022-11-18T07:09:26.520Z,7.40
2022-11-18T07:11:56.071Z,8.43
2022-11-18T07:14:27.129Z,7.93
2022-11-18T07:16:55.445Z,9.40
2022-11-18T07:19:24.790Z,7.83
2022-11-18T07:21:53.387Z,10.07
2022-11-18T07:24:21.837Z,10.43
2022-11-18T07:26:50.084Z,7.97
2022-11-18T07:29:18.752Z,8.30
2022-11-18T07:31:48.685Z,8.70
2022-11-18T07:34:17.399Z,9.13
2022-11-18T07:36:45.611Z,9.17
2022-11-18T07:39:15.137Z,9.83
2022-11-18T07:41:44.281Z,10.20
2022-11-18T07:44:12.835Z,9.83
2022-11-18T07:46:43.932Z,9.57
2022-11-18T07:49:15.997Z,9.47
2022-11-18T07:51:44.411Z,9.37
2022-11-18T07:54:13.937Z,10.50
2022-11-18T07:56:42.145Z,13.57
2022-11-18T07:59:10.401Z,17.60
2022-11-18T08:01:39.055Z,17.63
2022-11-18T08:04:07.950Z,15.77
2022-11-18T08:06:37.634Z,16.10
2022-11-18T08:09:06.474Z,15.40
2022-11-18T08:11:34.844Z,15.70
2022-11-18T08:14:03.038Z,14.77
2022-11-18T08:16:31.310Z,13.97
2022-11-18T08:18:59.918Z,13.83
2022-11-18T08:21:28.154Z,14.03
2022-11-18T08:23:58.402Z,12.67
2022-11-18T08:26:26.823Z,11.93
2022-11-18T08:28:55.570Z,12.73
2022-11-18T08:31:25.438Z,12.80
2022-11-18T08:33:56.031Z,13.63
2022-11-18T08:36:25.199Z,16.23
2022-11-18T08:38:53.451Z,15.67
2022-11-18T08:41:26.825Z,16.80
2022-11-18T08:43:55.291Z,16.30
2022-11-18T08:46:23.493Z,15.77
2022-11-18T08:48:51.726Z,18.77
2022-11-18T08:51:19.980Z,21.50
2022-11-18T08:53:48.207Z,22.87
2022-11-18T08:56:17.472Z,18.10
2022-11-18T08:58:47.564Z,16.07
2022-11-18T09:01:15.877Z,16.67
2022-11-18T09:03:44.166Z,16.77
2022-11-18T09:06:13.153Z,17.60
2022-11-18T09:08:41.426Z,16.30
2022-11-18T09:11:10.093Z,18.63
2022-11-18T09:14:38.980Z,16.80
2022-11-18T09:16:28.644Z,15.37
2022-11-18T09:18:57.005Z,12.60
2022-11-18T09:21:25.321Z,14.60
2022-11-18T09:23:53.633Z,12.23
2022-11-18T09:26:23.798Z,11.30
2022-11-18T09:28:54.360Z,17.40
2022-11-18T09:31:22.756Z,12.13
2022-11-18T09:33:52.494Z,12.07
2022-11-18T09:36:21.598Z,10.23
2022-11-18T09:38:53.230Z,55.33
2022-11-18T09:41:33.818Z,34.73
2022-11-18T09:44:06.261Z,19.33
2022-11-18T09:46:40.262Z,13.43
2022-11-18T09:49:16.237Z,11.93
2022-11-18T09:51:46.542Z,10.57
2022-11-18T09:54:20.424Z,10.03
2022-11-18T09:56:49.552Z,12.23
2022-11-18T09:59:19.028Z,14.50
2022-11-18T10:01:47.387Z,20.87
2022-11-18T10:04:17.848Z,12.97
2022-11-18T10:06:46.979Z,14.23
2022-11-18T10:09:22.609Z,15.03
2022-11-18T10:12:02.362Z,12.43
2022-11-18T10:14:41.265Z,14.60
2022-11-18T10:17:12.310Z,11.50
2022-11-18T10:19:44.601Z,11.40
2022-11-18T10:22:23.815Z,12.90
2022-11-18T10:24:53.650Z,10.93
2022-11-18T10:27:25.551Z,10.73
2022-11-18T10:29:55.315Z,10.70
2022-11-18T10:32:23.616Z,10.40
2022-11-18T10:34:53.985Z,9.63
2022-11-18T10:37:45.306Z,10.23
2022-11-18T10:40:25.203Z,9.60
2022-11-18T10:42:53.415Z,9.13
2022-11-18T10:45:26.413Z,10.67
2022-11-18T10:48:03.178Z,9.37
2022-11-18T10:50:34.757Z,13.80
2022-11-18T10:53:03.173Z,10.00
2022-11-18T10:55:31.500Z,10.50
2022-11-18T10:58:02.880Z,16.90
2022-11-18T11:00:42.729Z,17.97
2022-11-18T11:03:27.302Z,15.80
2022-11-18T11:06:16.799Z,26.93
2022-11-18T11:08:51.217Z,21.00
2022-11-18T11:11:28.595Z,21.57
2022-11-18T11:13:59.676Z,13.73
2022-11-18T11:16:28.166Z,19.20
2022-11-18T11:18:57.973Z,25.27
2022-11-18T11:21:28.735Z,20.77
2022-11-18T11:23:56.989Z,18.70
2022-11-18T11:29:30.189Z,16.20
2022-11-18T11:32:01.502Z,14.87
2022-11-18T11:34:32.716Z,16.60
2022-11-18T11:37:04.551Z,14.00
2022-11-18T11:39:42.217Z,17.10
2022-11-18T11:42:15.639Z,15.20
2022-11-18T11:44:51.541Z,10.93
2022-11-18T11:47:42.580Z,13.23
2022-11-18T11:50:14.563Z,19.77
2022-11-18T11:52:47.844Z,9.27
2022-11-18T11:55:19.963Z,12.63
2022-11-18T11:57:59.220Z,15.67
2022-11-18T12:00:28.908Z,13.73
2022-11-18T12:03:08.695Z,13.37
2022-11-18T12:05:39.216Z,17.80
2022-11-18T12:08:11.325Z,20.53
2022-11-18T12:10:44.959Z,12.77
2022-11-18T12:13:21.967Z,7.90
2022-11-18T12:15:56.215Z,7.57
2022-11-18T12:18:27.651Z,9.93
2022-11-18T12:20:56.071Z,8.20
2022-11-18T12:23:26.791Z,8.17
2022-11-18T12:25:57.048Z,7.37
2022-11-18T12:28:26.610Z,12.67
2022-11-18T12:31:36.303Z,8.20
2022-11-18T12:34:36.886Z,8.20
2022-11-18T12:37:40.623Z,10.50
2022-11-18T12:40:11.006Z,12.27
2022-11-18T12:43:00.860Z,20.50
2022-11-18T12:45:59.888Z,7.80
2022-11-18T12:48:46.027Z,7.70
2022-11-18T12:51:40.156Z,7.13
2022-11-18T12:54:24.460Z,6.80
2022-11-18T12:56:54.067Z,7.57
2022-11-18T12:59:28.819Z,16.10
2022-11-18T13:02:22.804Z,10.57
2022-11-18T13:05:07.913Z,8.77
2022-11-18T13:07:58.618Z,9.53
2022-11-18T13:10:28.846Z,8.63
2022-11-18T13:12:58.969Z,10.60
2022-11-18T13:15:45.096Z,10.20
2022-11-18T13:18:15.664Z,8.13
2022-11-18T13:20:44.099Z,9.37
2022-11-18T13:23:45.023Z,9.90
2022-11-18T13:26:16.371Z,10.87
2022-11-18T13:28:47.802Z,7.40
2022-11-18T13:31:18.232Z,4.90
2022-11-18T13:33:46.487Z,8.73
2022-11-18T13:36:18.069Z,13.03
2022-11-18T13:38:56.592Z,9.23
2022-11-18T13:41:24.888Z,11.47
2022-11-18T13:43:54.676Z,9.97
2022-11-18T13:46:23.160Z,14.10
2022-11-18T13:48:53.028Z,10.43
2022-11-18T13:51:21.276Z,5.37
2022-11-18T13:53:49.504Z,4.73
2022-11-18T13:56:19.669Z,5.43
2022-11-18T13:59:16.344Z,3.87
2022-11-18T14:01:44.922Z,6.13
2022-11-18T14:04:17.911Z,6.60
2022-11-18T14:06:46.219Z,6.80
2022-11-18T14:09:20.165Z,4.57
2022-11-18T14:12:00.131Z,7.37
2022-11-18T14:14:31.456Z,6.03
2022-11-18T14:17:18.364Z,5.53
2022-11-18T14:19:47.151Z,4.13
2022-11-18T14:22:16.567Z,4.77
2022-11-18T14:24:44.864Z,3.97
2022-11-18T14:27:39.210Z,4.87
2022-11-18T14:30:37.249Z,5.80
2022-11-18T14:33:16.424Z,5.80
2022-11-18T14:35:45.614Z,6.80
2022-11-18T14:38:35.894Z,6.30
2022-11-18T14:41:04.651Z,6.93
2022-11-18T14:43:33.035Z,7.10
2022-11-18T14:46:03.432Z,6.93
2022-11-18T14:48:32.736Z,6.57
2022-11-18T14:51:01.517Z,8.60
2022-11-18T14:53:29.762Z,9.17
2022-11-18T14:55:58.990Z,9.20
2022-11-18T14:58:27.529Z,8.30
2022-11-18T15:00:55.879Z,7.23
2022-11-18T15:03:25.694Z,7.60
2022-11-18T15:05:54.967Z,7.67
2022-11-18T15:08:23.473Z,7.27
2022-11-18T15:10:51.693Z,7.57
2022-11-18T15:13:19.969Z,8.03
2022-11-18T15:15:48.216Z,9.43
2022-11-18T15:18:16.436Z,7.07
2022-11-18T15:20:46.372Z,11.57
2022-11-18T15:23:14.638Z,17.87
2022-11-18T15:25:42.847Z,12.13
2022-11-18T15:28:11.092Z,10.00
2022-11-18T15:30:39.286Z,12.00
2022-11-18T15:33:07.626Z,10.93
2022-11-18T15:35:36.114Z,8.93
2022-11-18T15:38:06.212Z,8.10
2022-11-18T15:40:35.582Z,8.97
2022-11-18T15:43:03.890Z,10.00
2022-11-18T15:45:32.134Z,7.60
2022-11-18T15:48:00.670Z,5.87
2022-11-18T15:50:28.914Z,6.17
2022-11-18T15:52:57.529Z,4.80
2022-11-18T15:55:27.584Z,4.03
2022-11-18T15:57:55.776Z,5.17
2022-11-18T16:00:24.992Z,5.20
2022-11-18T16:02:53.636Z,5.27
2022-11-18T16:05:21.833Z,4.80
2022-11-18T16:07:54.679Z,5.17
2022-11-18T16:10:40.331Z,5.10
2022-11-18T16:13:10.134Z,5.20
2022-11-18T16:15:48.444Z,7.13
2022-11-18T16:18:18.071Z,6.53
2022-11-18T16:20:46.469Z,6.17
2022-11-18T16:23:14.724Z,7.20
2022-11-18T16:25:46.368Z,8.40
2022-11-18T16:28:16.365Z,9.90
2022-11-18T16:31:07.029Z,10.87
2022-11-18T16:33:35.260Z,11.10
2022-11-18T16:36:03.579Z,10.87
2022-11-18T16:38:32.368Z,9.77
2022-11-18T16:41:01.071Z,11.93
2022-11-18T16:43:30.731Z,14.73
2022-11-18T16:45:59.009Z,11.43
2022-11-18T16:48:27.340Z,13.40
2022-11-18T16:51:03.704Z,13.67
2022-11-18T16:53:31.988Z,14.00
2022-11-18T16:56:03.616Z,14.57
2022-11-18T16:58:33.453Z,14.80
2022-11-18T17:01:18.054Z,14.77
2022-11-18T17:03:51.637Z,16.20
2022-11-18T17:06:19.995Z,17.00
2022-11-18T17:08:48.579Z,16.17
2022-11-18T17:11:16.967Z,16.50
2022-11-18T17:13:46.933Z,15.97
2022-11-18T17:16:16.281Z,15.60
2022-11-18T17:18:44.646Z,15.57
2022-11-18T17:21:14.329Z,26.27
2022-11-18T17:23:43.096Z,17.93
2022-11-18T17:26:11.392Z,16.63
2022-11-18T17:28:39.604Z,16.60
2022-11-18T17:31:09.762Z,16.03
2022-11-18T17:33:38.033Z,17.73
2022-11-18T17:36:08.218Z,16.07
2022-11-18T17:38:36.909Z,17.47
2022-11-18T17:41:05.608Z,18.47
2022-11-18T17:43:33.946Z,16.87
2022-11-18T17:46:02.406Z,16.43
2022-11-18T17:48:32.225Z,16.83
2022-11-18T17:51:07.790Z,16.37
2022-11-18T17:53:38.991Z,17.17
2022-11-18T17:56:10.333Z,15.73
2022-11-18T17:58:38.715Z,16.53
2022-11-18T18:01:09.265Z,16.77
2022-11-18T18:03:39.383Z,17.70
2022-11-18T18:06:08.441Z,17.13
2022-11-18T18:08:36.763Z,17.50
2022-11-18T18:11:05.069Z,18.37
2022-11-18T18:13:52.168Z,19.17
2022-11-18T18:16:20.503Z,18.80
2022-11-18T18:18:50.305Z,18.47
2022-11-18T18:21:18.652Z,21.57
2022-11-18T18:24:13.078Z,21.13
2022-11-18T18:26:41.460Z,18.37
2022-11-18T18:29:09.828Z,17.60
2022-11-18T18:31:38.246Z,17.63
2022-11-18T18:34:08.006Z,17.80
2022-11-18T18:36:36.608Z,18.63
2022-11-18T18:39:04.886Z,18.67
2022-11-18T18:41:33.176Z,18.20
2022-11-18T18:44:01.640Z,18.17
2022-11-18T18:46:32.189Z,18.47
2022-11-18T18:49:02.927Z,17.87
2022-11-18T18:51:33.807Z,18.63
2022-11-18T18:54:02.158Z,17.07
2022-11-18T18:56:30.529Z,18.20
2022-11-18T18:58:58.959Z,20.17
2022-11-18T19:01:28.759Z,18.93
2022-11-18T19:03:57.965Z,19.27
2022-11-18T19:06:51.694Z,19.90
2022-11-18T19:09:16.852Z,19.17
2022-11-18T19:12:02.937Z,19.37
2022-11-18T19:14:31.248Z,21.80
2022-11-18T19:17:02.469Z,21.43
2022-11-18T19:20:07.062Z,22.70
2022-11-18T19:22:35.430Z,19.87
2022-11-18T19:25:05.720Z,21.33
2022-11-18T19:27:36.527Z,21.30
2022-11-18T19:30:05.255Z,21.60
2022-11-18T19:32:36.687Z,22.10
2022-11-18T19:35:05.470Z,21.33
2022-11-18T19:37:33.842Z,22.33
2022-11-18T19:40:07.246Z,21.93
2022-11-18T19:42:42.019Z,22.10
2022-11-18T19:45:11.218Z,22.57
2022-11-18T19:47:39.522Z,22.00
2022-11-18T19:50:08.406Z,21.70
2022-11-18T19:52:36.827Z,21.63
2022-11-18T19:55:05.782Z,23.47
2022-11-18T19:57:34.357Z,23.47
2022-11-18T20:00:04.375Z,22.50
2022-11-18T20:02:38.937Z,23.47
2022-11-18T20:05:25.425Z,24.00
2022-11-18T20:07:58.185Z,23.97
2022-11-18T20:10:29.868Z,23.57
2022-11-18T20:12:58.625Z,22.83
2022-11-18T20:15:28.394Z,22.37
2022-11-18T20:17:56.801Z,23.00
2022-11-18T20:20:25.217Z,24.43
2022-11-18T20:22:56.540Z,24.90
2022-11-18T20:25:25.440Z,25.47
2022-11-18T20:27:55.458Z,24.13
2022-11-18T20:30:23.815Z,23.87
2022-11-18T20:32:53.649Z,23.17
2022-11-18T20:35:21.998Z,24.20
2022-11-18T20:37:50.253Z,22.93
2022-11-18T20:40:18.991Z,24.80
2022-11-18T20:43:04.601Z,23.27
2022-11-18T20:45:33.035Z,23.63
2022-11-18T20:48:03.238Z,22.60
2022-11-18T20:50:31.670Z,24.47
2022-11-18T20:53:00.321Z,25.33
2022-11-18T20:55:28.739Z,23.73
2022-11-18T20:57:57.024Z,24.37
2022-11-18T21:00:25.441Z,23.53
2022-11-18T21:02:53.832Z,25.43
2022-11-18T21:05:24.536Z,24.73
2022-11-18T21:07:56.400Z,25.87
2022-11-18T21:10:25.628Z,22.97
2022-11-18T21:13:11.451Z,23.33
2022-11-18T21:15:42.648Z,21.57
2022-11-18T21:18:10.911Z,23.20
2022-11-18T21:20:58.404Z,21.67
2022-11-18T21:23:27.359Z,23.57
2022-11-18T21:25:55.848Z,21.23
2022-11-18T21:28:25.290Z,20.90
2022-11-18T21:30:53.568Z,21.97
2022-11-18T21:33:21.984Z,22.20
2022-11-18T21:35:52.143Z,21.57
2022-11-18T21:38:20.577Z,22.23
2022-11-18T21:40:48.834Z,22.13
2022-11-18T21:43:28.636Z,23.83
2022-11-18T21:46:09.291Z,22.77
2022-11-18T21:48:37.995Z,21.77
2022-11-18T21:51:09.537Z,24.87
2022-11-18T21:53:37.923Z,22.63
2022-11-18T21:56:07.493Z,24.00
2022-11-18T21:58:35.853Z,24.33
2022-11-18T22:01:10.195Z,23.83
2022-11-18T22:03:40.820Z,24.70
2022-11-18T22:06:14.428Z,25.07
2022-11-18T22:08:42.717Z,23.30
2022-11-18T22:11:11.945Z,24.13
2022-11-18T22:13:40.305Z,24.13
2022-11-18T22:16:09.934Z,24.23
2022-11-18T22:18:39.190Z,25.43
2022-11-18T22:21:09.195Z,25.53
2022-11-18T22:23:39.125Z,24.73
2022-11-18T22:26:08.947Z,24.53
2022-11-18T22:28:37.580Z,23.40
2022-11-18T22:31:06.077Z,25.10
2022-11-18T22:33:34.631Z,25.07
2022-11-18T22:36:03.233Z,24.87
2022-11-18T22:38:31.552Z,22.33
2022-11-18T22:41:02.557Z,22.73
2022-11-18T22:43:30.328Z,21.60
2022-11-18T22:46:02.730Z,21.47
2022-11-18T22:48:31.171Z,22.70
2022-11-18T22:51:00.555Z,22.57
2022-11-18T22:53:28.848Z,22.67
2022-11-18T22:56:06.112Z,21.13
2022-11-18T22:58:34.445Z,21.40
2022-11-18T23:01:03.641Z,21.17
2022-11-18T23:03:31.986Z,21.97
2022-11-18T23:06:00.375Z,22.23
2022-11-18T23:08:29.035Z,19.40
2022-11-18T23:11:02.988Z,19.97
2022-11-18T23:13:49.777Z,20.40
2022-11-18T23:16:18.046Z,19.70
2022-11-18T23:18:46.418Z,19.00
2022-11-18T23:21:14.874Z,19.60
2022-11-18T23:23:44.088Z,19.33
2022-11-18T23:26:13.195Z,19.33
2022-11-18T23:28:43.019Z,17.37
2022-11-18T23:31:12.232Z,18.07
2022-11-18T23:33:40.812Z,19.20
2022-11-18T23:36:10.338Z,18.73
2022-11-18T23:38:38.846Z,18.90
2022-11-18T23:41:08.309Z,16.77
2022-11-18T23:43:36.772Z,16.47
2022-11-18T23:46:06.737Z,17.53
2022-11-18T23:48:36.269Z,16.27
2022-11-18T23:51:05.835Z,16.40
2022-11-18T23:53:34.736Z,16.17
2022-11-18T23:56:03.653Z,15.77
2022-11-18T23:58:31.885Z,15.37
